EGTE/EXT METAR and TAF weather

Enter ICAO airport designator
Station Type Date Time Source
EGTE METAR 2019/09/20 20:20 UTC NOAA

EGTE 202020Z 09013KT CAVOK 16/09 Q1016


Station Type Date Time Source
EGTE Decoded METAR 2019/09/20 20:20 UTC NOAA

Exeter Airport, United Kingdom (EGTE) 50-44N 003-25W
Sep 20, 2019 - 04:20 PM EDT / 2019.09.20 2020 UTC
Wind: from the E (090 degrees) at 15 MPH (13 KT):0
Visibility: greater than 7 mile(s):0
Temperature: 60 F (16 C)
Dew Point: 48 F (9 C)
Relative Humidity: 63%
Pressure (altimeter): 30.00 in. Hg (1016 hPa)
ob: EGTE 202020Z 09013KT CAVOK 16/09 Q1016
cycle: 20

Station Type Date Time Source
EGTE TAF 2012/04/19 12:15 UTC NOAA

TAF TAF EGTE 191401Z 1912/1924 31016KT 9999 SCT030 SCT035 PROB40
TEMPO 1915/1918 7000 SHRA BKN014

Example: see airport list